^^
Your Local Weather - Clay, NY Station Historical Data
Daily Summary for March 1, 2018 Units:  Both    English   Metric
« Previous Day
Next Day »
Daily Weekly Monthly Yearly Custom
  High: Low: Average:
Temperature: 48.1 °F /  8.9 °C 33.5 °F /  0.8 °C 37.3 °F /  2.9 °C
Dew Point: 41.6 °F /  5.3 °C 30.1 °F /  -1.1 °C 32.3 °F /  0.2 °C
Humidity: 88% 75% 82%
Wind Speed: 7.0mph /  11.3km/h - 1.3mph /  2.1km/h
Wind Gust: 14.0mph /  22.5km/h - -
Wind- - SSW
Pressure: 29.93 in /  1013.4 hPa 29.60 in /  1002.3 hPa -
Precipitation: 0.10 in /  2.54 mm    
Historical Graphs
 
 
Tabular Data for March 1, 2018
Time Temperature Dew Point Pressure Wind Wind Speed Wind Gust Humidity Rainfall Rate (Hourly) solar
00:00 48.1 °F /  8.9 °C 41.6 °F /  5.3 °C 29.81in /  1009.4hPa WNW 3.0mph /  4.8km/h 3.0mph /  4.8km/h 78% 0.00in /  0mm 0 W/m2
00:06 47.7 °F /  8.7 °C 41.2 °F /  5.1 °C 29.81in /  1009.4hPa NW 2.0mph /  3.2km/h 4.0mph /  6.4km/h 78% 0.00in /  0mm 0 W/m2
00:12 47.4 °F /  8.6 °C 40.9 °F /  4.9 °C 29.81in /  1009.4hPa NW 3.0mph /  4.8km/h 4.0mph /  6.4km/h 78% 0.00in /  0mm 0 W/m2
00:18 47.0 °F /  8.3 °C 40.5 °F /  4.7 °C 29.81in /  1009.4hPa NW 2.0mph /  3.2km/h 5.0mph /  8km/h 78% 0.00in /  0mm 0 W/m2
00:24 46.7 °F /  8.2 °C 40.5 °F /  4.7 °C 29.81in /  1009.4hPa NW 1.0mph /  1.6km/h 2.0mph /  3.2km/h 79% 0.00in /  0mm 0 W/m2
00:30 46.5 °F /  8.1 °C 40.3 °F /  4.6 °C 29.81in /  1009.4hPa NW 1.0mph /  1.6km/h 4.0mph /  6.4km/h 79% 0.00in /  0mm 0 W/m2
00:36 46.3 °F /  7.9 °C 40.1 °F /  4.5 °C 29.81in /  1009.4hPa NW 1.0mph /  1.6km/h 4.0mph /  6.4km/h 79% 0.00in /  0mm 0 W/m2
00:42 46.0 °F /  7.8 °C 39.9 °F /  4.4 °C 29.81in /  1009.4hPa NW 1.0mph /  1.6km/h 3.0mph /  4.8km/h 79% 0.00in /  0mm 0 W/m2
00:48 45.7 °F /  7.6 °C 39.6 °F /  4.2 °C 29.82in /  1009.7hPa NW 2.0mph /  3.2km/h 3.0mph /  4.8km/h 79% 0.00in /  0mm 0 W/m2
00:54 45.4 °F /  7.4 °C 38.6 °F /  3.7 °C 29.82in /  1009.7hPa WNW 3.0mph /  4.8km/h 4.0mph /  6.4km/h 77% 0.00in /  0mm 0 W/m2
01:00 45.2 °F /  7.3 °C 38.4 °F /  3.6 °C 29.82in /  1009.7hPa WNW 3.0mph /  4.8km/h 4.0mph /  6.4km/h 77% 0.00in /  0mm 0 W/m2
01:06 44.9 °F /  7.2 °C 37.8 °F /  3.2 °C 29.82in /  1009.7hPa WNW 3.0mph /  4.8km/h 5.0mph /  8km/h 76% 0.00in /  0mm 0 W/m2
01:12 44.5 °F /  6.9 °C 37.4 °F /  3 °C 29.83in /  1010hPa WNW 3.0mph /  4.8km/h 3.0mph /  4.8km/h 76% 0.00in /  0mm 0 W/m2
01:18 43.8 °F /  6.6 °C 36.7 °F /  2.6 °C 29.83in /  1010hPa WNW 2.0mph /  3.2km/h 3.0mph /  4.8km/h 76% 0.00in /  0mm 0 W/m2
01:24 43.3 °F /  6.3 °C 36.2 °F /  2.3 °C 29.84in /  1010.4hPa WNW 3.0mph /  4.8km/h 4.0mph /  6.4km/h 76% 0.00in /  0mm 0 W/m2
01:30 42.9 °F /  6.1 °C 35.9 °F /  2.2 °C 29.84in /  1010.4hPa WNW 3.0mph /  4.8km/h 3.0mph /  4.8km/h 76% 0.00in /  0mm 0 W/m2
01:36 42.5 °F /  5.8 °C 35.5 °F /  1.9 °C 29.84in /  1010.4hPa WNW 2.0mph /  3.2km/h 3.0mph /  4.8km/h 76% 0.00in /  0mm 0 W/m2
01:42 42.0 °F /  5.6 °C 35.3 °F /  1.8 °C 29.83in /  1010hPa WNW 2.0mph /  3.2km/h 3.0mph /  4.8km/h 77% 0.00in /  0mm 0 W/m2
01:48 41.6 °F /  5.3 °C 35.2 °F /  1.8 °C 29.83in /  1010hPa WNW 3.0mph /  4.8km/h 4.0mph /  6.4km/h 78% 0.00in /  0mm 0 W/m2
01:54 41.2 °F /  5.1 °C 34.9 °F /  1.6 °C 29.84in /  1010.4hPa WNW 2.0mph /  3.2km/h 3.0mph /  4.8km/h 78% 0.00in /  0mm 0 W/m2
02:00 40.8 °F /  4.9 °C 34.8 °F /  1.6 °C 29.84in /  1010.4hPa WNW 2.0mph /  3.2km/h 2.0mph /  3.2km/h 79% 0.00in /  0mm 0 W/m2
02:06 40.4 °F /  4.7 °C 34.4 °F /  1.3 °C 29.84in /  1010.4hPa WNW 2.0mph /  3.2km/h 2.0mph /  3.2km/h 79% 0.00in /  0mm 0 W/m2
02:12 40.0 °F /  4.4 °C 34.3 °F /  1.3 °C 29.84in /  1010.4hPa WNW 2.0mph /  3.2km/h 3.0mph /  4.8km/h 80% 0.00in /  0mm 0 W/m2
02:18 39.5 °F /  4.2 °C 34.2 °F /  1.2 °C 29.84in /  1010.4hPa WNW 2.0mph /  3.2km/h 3.0mph /  4.8km/h 81% 0.00in /  0mm 0 W/m2
02:24 39.3 °F /  4.1 °C 34.3 °F /  1.3 °C 29.84in /  1010.4hPa WNW 1.0mph /  1.6km/h 3.0mph /  4.8km/h 82% 0.00in /  0mm 0 W/m2
02:30 39.0 °F /  3.9 °C 34.0 °F /  1.1 °C 29.84in /  1010.4hPa WNW 1.0mph /  1.6km/h 1.0mph /  1.6km/h 82% 0.00in /  0mm 0 W/m2
02:36 38.8 °F /  3.8 °C 34.1 °F /  1.2 °C 29.84in /  1010.4hPa WNW 2.0mph /  3.2km/h 4.0mph /  6.4km/h 83% 0.00in /  0mm 0 W/m2
02:42 38.5 °F /  3.6 °C 33.8 °F /  1 °C 29.84in /  1010.4hPa WNW 1.0mph /  1.6km/h 1.0mph /  1.6km/h 83% 0.00in /  0mm 0 W/m2
02:48 38.2 °F /  3.4 °C 33.8 °F /  1 °C 29.84in /  1010.4hPa WNW 1.0mph /  1.6km/h 3.0mph /  4.8km/h 84% 0.00in /  0mm 0 W/m2
02:54 37.8 °F /  3.2 °C 33.4 °F /  0.8 °C 29.84in /  1010.4hPa WNW 1.0mph /  1.6km/h 1.0mph /  1.6km/h 84% 0.00in /  0mm 0 W/m2
03:00 37.5 °F /  3.1 °C 33.4 °F /  0.8 °C 29.84in /  1010.4hPa Calm   3.0mph /  4.8km/h 85% 0.00in /  0mm 0 W/m2
03:06 37.5 °F /  3.1 °C 33.7 °F /  0.9 °C 29.84in /  1010.4hPa NNW 2.0mph /  3.2km/h 4.0mph /  6.4km/h 86% 0.00in /  0mm 0 W/m2
03:12 37.5 °F /  3.1 °C 34.0 °F /  1.1 °C 29.84in /  1010.4hPa North 3.0mph /  4.8km/h 3.0mph /  4.8km/h 87% 0.00in /  0mm 0 W/m2
03:18 37.5 °F /  3.1 °C 34.0 °F /  1.1 °C 29.85in /  1010.7hPa North 2.0mph /  3.2km/h 3.0mph /  4.8km/h 87% 0.00in /  0mm 0 W/m2
03:24 37.5 °F /  3.1 °C 34.0 °F /  1.1 °C 29.85in /  1010.7hPa NW 1.0mph /  1.6km/h 2.0mph /  3.2km/h 87% 0.00in /  0mm 0 W/m2
03:30 37.4 °F /  3 °C 34.2 °F /  1.2 °C 29.85in /  1010.7hPa NW 1.0mph /  1.6km/h 1.0mph /  1.6km/h 88% 0.00in /  0mm 0 W/m2
03:36 37.3 °F /  2.9 °C 34.1 °F /  1.2 °C 29.85in /  1010.7hPa NW 1.0mph /  1.6km/h 3.0mph /  4.8km/h 88% 0.00in /  0mm 0 W/m2
03:42 36.9 °F /  2.7 °C 33.7 °F /  0.9 °C 29.85in /  1010.7hPa NW 2.0mph /  3.2km/h 3.0mph /  4.8km/h 88% 0.00in /  0mm 0 W/m2
03:48 36.4 °F /  2.4 °C 32.9 °F /  0.5 °C 29.85in /  1010.7hPa NNW 2.0mph /  3.2km/h 3.0mph /  4.8km/h 87% 0.00in /  0mm 0 W/m2
03:54 36.0 °F /  2.2 °C 32.5 °F /  0.3 °C 29.85in /  1010.7hPa NNW 2.0mph /  3.2km/h 2.0mph /  3.2km/h 87% 0.00in /  0mm 0 W/m2
04:10 35.4 °F /  1.9 °C 31.9 °F /  -0.1 °C 29.86in /  1011.1hPa WNW 1.0mph /  1.6km/h 6.0mph /  9.7km/h 87% 0.00in /  0mm 0 W/m2
04:16 35.2 °F /  1.8 °C 31.4 °F /  -0.3 °C 29.86in /  1011.1hPa NW 2.0mph /  3.2km/h 6.0mph /  9.7km/h 86% 0.00in /  0mm 0 W/m2
04:22 35.0 °F /  1.7 °C 31.2 °F /  -0.4 °C 29.86in /  1011.1hPa NNW 2.0mph /  3.2km/h 2.0mph /  3.2km/h 86% 0.00in /  0mm 0 W/m2
04:28 34.8 °F /  1.6 °C 31.0 °F /  -0.6 °C 29.86in /  1011.1hPa NNW 1.0mph /  1.6km/h 2.0mph /  3.2km/h 86% 0.00in /  0mm 0 W/m2
04:34 34.7 °F /  1.5 °C 30.9 °F /  -0.6 °C 29.86in /  1011.1hPa NNW 1.0mph /  1.6km/h 2.0mph /  3.2km/h 86% 0.00in /  0mm 0 W/m2
04:40 34.5 °F /  1.4 °C 30.7 °F /  -0.7 °C 29.86in /  1011.1hPa NNW 1.0mph /  1.6km/h 1.0mph /  1.6km/h 86% 0.00in /  0mm 0 W/m2
04:46 34.3 °F /  1.3 °C 30.5 °F /  -0.8 °C 29.87in /  1011.4hPa NNW 1.0mph /  1.6km/h 2.0mph /  3.2km/h 86% 0.00in /  0mm 0 W/m2
04:52 34.1 °F /  1.2 °C 30.4 °F /  -0.9 °C 29.86in /  1011.1hPa NNW 1.0mph /  1.6km/h 1.0mph /  1.6km/h 86% 0.00in /  0mm 0 W/m2
05:00 33.9 °F /  1.1 °C 30.4 °F /  -0.9 °C 29.87in /  1011.4hPa NNW 2.0mph /  3.2km/h 2.0mph /  3.2km/h 87% 0.00in /  0mm 0 W/m2
05:06 33.8 °F /  1 °C 30.3 °F /  -0.9 °C 29.87in /  1011.4hPa NNW 1.0mph /  1.6km/h 2.0mph /  3.2km/h 87% 0.00in /  0mm 0 W/m2
05:12 33.7 °F /  0.9 °C 30.2 °F /  -1 °C 29.88in /  1011.7hPa NNW 1.0mph /  1.6km/h 2.0mph /  3.2km/h 87% 0.00in /  0mm 0 W/m2
05:14 33.6 °F /  0.9 °C 30.1 °F /  -1.1 °C 29.88in /  1011.7hPa NNW 1.0mph /  1.6km/h 3.0mph /  4.8km/h 87% 0.00in /  0mm 0 W/m2
05:20 33.6 °F /  0.9 °C 30.1 °F /  -1.1 °C 29.89in /  1012.1hPa NNW 2.0mph /  3.2km/h 2.0mph /  3.2km/h 87% 0.00in /  0mm 0 W/m2
05:26 33.6 °F /  0.9 °C 30.1 °F /  -1.1 °C 29.90in /  1012.4hPa NNW 1.0mph /  1.6km/h 4.0mph /  6.4km/h 87% 0.00in /  0mm 0 W/m2
05:32 33.6 °F /  0.9 °C 30.1 °F /  -1.1 °C 29.89in /  1012.1hPa NNW 1.0mph /  1.6km/h 1.0mph /  1.6km/h 87% 0.00in /  0mm 0 W/m2
05:38 33.7 °F /  0.9 °C 30.2 °F /  -1 °C 29.90in /  1012.4hPa NNW 2.0mph /  3.2km/h 4.0mph /  6.4km/h 87% 0.00in /  0mm 0 W/m2
05:44 33.7 °F /  0.9 °C 30.2 °F /  -1 °C 29.91in /  1012.8hPa NNW 2.0mph /  3.2km/h 3.0mph /  4.8km/h 87% 0.00in /  0mm 0 W/m2
05:50 33.7 °F /  0.9 °C 30.2 °F /  -1 °C 29.91in /  1012.8hPa NNW 2.0mph /  3.2km/h 2.0mph /  3.2km/h 87% 0.00in /  0mm 0 W/m2
05:56 33.7 °F /  0.9 °C 30.5 °F /  -0.8 °C 29.92in /  1013.1hPa NNW 2.0mph /  3.2km/h 3.0mph /  4.8km/h 88% 0.00in /  0mm 0 W/m2
06:02 33.8 °F /  1 °C 30.3 °F /  -0.9 °C 29.92in /  1013.1hPa NNW 2.0mph /  3.2km/h 3.0mph /  4.8km/h 87% 0.00in /  0mm 0 W/m2
06:08 33.8 °F /  1 °C 30.6 °F /  -0.8 °C 29.92in /  1013.1hPa NNW 1.0mph /  1.6km/h 3.0mph /  4.8km/h 88% 0.00in /  0mm 0 W/m2
06:14 33.8 °F /  1 °C 30.6 °F /  -0.8 °C 29.91in /  1012.8hPa NNW 1.0mph /  1.6km/h 3.0mph /  4.8km/h 88% 0.00in /  0mm 0 W/m2
06:20 33.8 °F /  1 °C 30.6 °F /  -0.8 °C 29.90in /  1012.4hPa NNW 2.0mph /  3.2km/h 2.0mph /  3.2km/h 88% 0.00in /  0mm 0 W/m2
06:26 33.6 °F /  0.9 °C 30.4 °F /  -0.9 °C 29.89in /  1012.1hPa NNW 3.0mph /  4.8km/h 3.0mph /  4.8km/h 88% 0.00in /  0mm 0 W/m2
06:32 33.6 °F /  0.9 °C 30.1 °F /  -1.1 °C 29.89in /  1012.1hPa NW 3.0mph /  4.8km/h 3.0mph /  4.8km/h 87% 0.00in /  0mm 0 W/m2
06:38 33.5 °F /  0.8 °C 30.3 °F /  -0.9 °C 29.90in /  1012.4hPa NW 2.0mph /  3.2km/h 6.0mph /  9.7km/h 88% 0.00in /  0mm 0 W/m2
06:44 33.5 °F /  0.8 °C 30.3 °F /  -0.9 °C 29.90in /  1012.4hPa NW 2.0mph /  3.2km/h 2.0mph /  3.2km/h 88% 0.00in /  0mm 0 W/m2
06:50 33.5 °F /  0.8 °C 30.3 °F /  -0.9 °C 29.92in /  1013.1hPa NW 2.0mph /  3.2km/h 2.0mph /  3.2km/h 88% 0.00in /  0mm 0 W/m2
06:56 33.6 °F /  0.9 °C 30.4 °F /  -0.9 °C 29.92in /  1013.1hPa NW 1.0mph /  1.6km/h 2.0mph /  3.2km/h 88% 0.00in /  0mm 5 W/m2
07:02 33.7 °F /  0.9 °C 30.5 °F /  -0.8 °C 29.92in /  1013.1hPa Calm     88% 0.00in /  0mm 9 W/m2
07:08 33.7 °F /  0.9 °C 30.5 °F /  -0.8 °C 29.92in /  1013.1hPa Calm     88% 0.00in /  0mm 12 W/m2
07:14 33.7 °F /  0.9 °C 30.5 °F /  -0.8 °C 29.92in /  1013.1hPa WNW 1.0mph /  1.6km/h 2.0mph /  3.2km/h 88% 0.00in /  0mm 18 W/m2
07:22 33.9 °F /  1.1 °C 30.7 °F /  -0.7 °C 29.92in /  1013.1hPa Calm   1.0mph /  1.6km/h 88% 0.00in /  0mm 21 W/m2
07:28 33.9 °F /  1.1 °C 30.7 °F /  -0.7 °C 29.92in /  1013.1hPa WNW 1.0mph /  1.6km/h 3.0mph /  4.8km/h 88% 0.00in /  0mm 21 W/m2
07:34 33.8 °F /  1 °C 30.6 °F /  -0.8 °C 29.92in /  1013.1hPa WNW 2.0mph /  3.2km/h 3.0mph /  4.8km/h 88% 0.00in /  0mm 21 W/m2
07:40 33.7 °F /  0.9 °C 30.5 °F /  -0.8 °C 29.92in /  1013.1hPa WNW 2.0mph /  3.2km/h 2.0mph /  3.2km/h 88% 0.00in /  0mm 28 W/m2
07:46 33.8 °F /  1 °C 30.6 °F /  -0.8 °C 29.91in /  1012.8hPa WNW 2.0mph /  3.2km/h 2.0mph /  3.2km/h 88% 0.00in /  0mm 32 W/m2
07:52 33.7 °F /  0.9 °C 30.5 °F /  -0.8 °C 29.91in /  1012.8hPa WNW 1.0mph /  1.6km/h 1.0mph /  1.6km/h 88% 0.00in /  0mm 32 W/m2
07:58 33.8 °F /  1 °C 30.6 °F /  -0.8 °C 29.91in /  1012.8hPa Calm   1.0mph /  1.6km/h 88% 0.00in /  0mm 26 W/m2
08:06 33.9 °F /  1.1 °C 30.7 °F /  -0.7 °C 29.91in /  1012.8hPa Calm     88% 0.00in /  0mm 46 W/m2
08:12 34.0 °F /  1.1 °C 30.8 °F /  -0.7 °C 29.92in /  1013.1hPa WNW 1.0mph /  1.6km/h 2.0mph /  3.2km/h 88% 0.00in /  0mm 44 W/m2
08:18 33.9 °F /  1.1 °C 30.4 °F /  -0.9 °C 29.92in /  1013.1hPa WNW 1.0mph /  1.6km/h 2.0mph /  3.2km/h 87% 0.00in /  0mm 42 W/m2
08:24 33.9 °F /  1.1 °C 30.4 °F /  -0.9 °C 29.92in /  1013.1hPa WNW 1.0mph /  1.6km/h 3.0mph /  4.8km/h 87% 0.00in /  0mm 46 W/m2
08:30 33.9 °F /  1.1 °C 30.4 °F /  -0.9 °C 29.92in /  1013.1hPa WNW 1.0mph /  1.6km/h 2.0mph /  3.2km/h 87% 0.00in /  0mm 63 W/m2
08:38 34.0 °F /  1.1 °C 30.5 °F /  -0.8 °C 29.92in /  1013.1hPa WNW 2.0mph /  3.2km/h 3.0mph /  4.8km/h 87% 0.00in /  0mm 63 W/m2
08:44 34.0 °F /  1.1 °C 30.5 °F /  -0.8 °C 29.92in /  1013.1hPa WNW 2.0mph /  3.2km/h 4.0mph /  6.4km/h 87% 0.00in /  0mm 74 W/m2
08:50 34.0 °F /  1.1 °C 30.5 °F /  -0.8 °C 29.92in /  1013.1hPa WNW 1.0mph /  1.6km/h 1.0mph /  1.6km/h 87% 0.00in /  0mm 70 W/m2
08:56 34.1 °F /  1.2 °C 30.6 °F /  -0.8 °C 29.92in /  1013.1hPa WNW 1.0mph /  1.6km/h 2.0mph /  3.2km/h 87% 0.00in /  0mm 81 W/m2
09:02 34.2 °F /  1.2 °C 30.7 °F /  -0.7 °C 29.92in /  1013.1hPa WNW 1.0mph /  1.6km/h 1.0mph /  1.6km/h 87% 0.00in /  0mm 69 W/m2
09:08 34.4 °F /  1.3 °C 30.9 °F /  -0.6 °C 29.92in /  1013.1hPa Calm   3.0mph /  4.8km/h 87% 0.00in /  0mm 63 W/m2
09:14 34.3 °F /  1.3 °C 30.8 °F /  -0.7 °C 29.91in /  1012.8hPa WNW 1.0mph /  1.6km/h 4.0mph /  6.4km/h 87% 0.00in /  0mm 51 W/m2
09:20 34.3 °F /  1.3 °C 30.8 °F /  -0.7 °C 29.91in /  1012.8hPa WNW 1.0mph /  1.6km/h 1.0mph /  1.6km/h 87% 0.00in /  0mm 53 W/m2
09:26 34.4 °F /  1.3 °C 30.9 °F /  -0.6 °C 29.90in /  1012.4hPa Calm   1.0mph /  1.6km/h 87% 0.00in /  0mm 49 W/m2
09:32 34.4 °F /  1.3 °C 30.9 °F /  -0.6 °C 29.91in /  1012.8hPa Calm   2.0mph /  3.2km/h 87% 0.00in /  0mm 56 W/m2
09:38 34.5 °F /  1.4 °C 31.0 °F /  -0.6 °C 29.92in /  1013.1hPa WNW 1.0mph /  1.6km/h 2.0mph /  3.2km/h 87% 0.00in /  0mm 53 W/m2
09:44 34.6 °F /  1.4 °C 31.1 °F /  -0.5 °C 29.92in /  1013.1hPa Calm   2.0mph /  3.2km/h 87% 0.00in /  0mm 46 W/m2
09:50 34.6 °F /  1.4 °C 31.1 °F /  -0.5 °C 29.91in /  1012.8hPa WNW 1.0mph /  1.6km/h 1.0mph /  1.6km/h 87% 0.00in /  0mm 53 W/m2
09:56 34.5 °F /  1.4 °C 30.7 °F /  -0.7 °C 29.92in /  1013.1hPa WNW 1.0mph /  1.6km/h 1.0mph /  1.6km/h 86% 0.00in /  0mm 54 W/m2
10:02 34.6 °F /  1.4 °C 30.8 °F /  -0.7 °C 29.93in /  1013.4hPa Calm     86% 0.00in /  0mm 58 W/m2
10:08 34.6 °F /  1.4 °C 30.8 °F /  -0.7 °C 29.93in /  1013.4hPa WNW 1.0mph /  1.6km/h 3.0mph /  4.8km/h 86% 0.00in /  0mm 72 W/m2
10:14 34.6 °F /  1.4 °C 30.8 °F /  -0.7 °C 29.93in /  1013.4hPa WNW 2.0mph /  3.2km/h 2.0mph /  3.2km/h 86% 0.00in /  0mm 72 W/m2
10:20 34.6 °F /  1.4 °C 30.8 °F /  -0.7 °C 29.93in /  1013.4hPa WNW 1.0mph /  1.6km/h 2.0mph /  3.2km/h 86% 0.00in /  0mm 69 W/m2
10:26 34.8 °F /  1.6 °C 31.0 °F /  -0.6 °C 29.93in /  1013.4hPa WNW 1.0mph /  1.6km/h 3.0mph /  4.8km/h 86% 0.00in /  0mm 135 W/m2
10:32 35.1 °F /  1.7 °C 31.3 °F /  -0.4 °C 29.92in /  1013.1hPa WNW 1.0mph /  1.6km/h 2.0mph /  3.2km/h 86% 0.00in /  0mm 197 W/m2
10:38 35.2 °F /  1.8 °C 31.4 °F /  -0.3 °C 29.92in /  1013.1hPa WNW 1.0mph /  1.6km/h 2.0mph /  3.2km/h 86% 0.00in /  0mm 153 W/m2
10:44 35.5 °F /  1.9 °C 31.7 °F /  -0.2 °C 29.92in /  1013.1hPa WNW 1.0mph /  1.6km/h 2.0mph /  3.2km/h 86% 0.00in /  0mm 132 W/m2
10:50 35.4 °F /  1.9 °C 31.3 °F /  -0.4 °C 29.92in /  1013.1hPa Calm     85% 0.00in /  0mm 123 W/m2
10:56 35.6 °F /  2 °C 31.5 °F /  -0.3 °C 29.92in /  1013.1hPa Calm     85% 0.00in /  0mm 111 W/m2
11:02 35.7 °F /  2.1 °C 31.6 °F /  -0.2 °C 29.92in /  1013.1hPa WNW 1.0mph /  1.6km/h 2.0mph /  3.2km/h 85% 0.00in /  0mm 125 W/m2
11:08 35.8 °F /  2.1 °C 31.7 °F /  -0.2 °C 29.92in /  1013.1hPa WNW 2.0mph /  3.2km/h 2.0mph /  3.2km/h 85% 0.00in /  0mm 109 W/m2
11:14 35.9 °F /  2.2 °C 31.8 °F /  -0.1 °C 29.92in /  1013.1hPa WNW 1.0mph /  1.6km/h 2.0mph /  3.2km/h 85% 0.00in /  0mm 93 W/m2
11:20 36.0 °F /  2.2 °C 31.9 °F /  -0.1 °C 29.92in /  1013.1hPa Calm     85% 0.00in /  0mm 62 W/m2
11:26 36.0 °F /  2.2 °C 31.9 °F /  -0.1 °C 29.92in /  1013.1hPa Calm     85% 0.00in /  0mm 51 W/m2
11:32 35.9 °F /  2.2 °C 31.5 °F /  -0.3 °C 29.92in /  1013.1hPa Calm     84% 0.00in /  0mm 77 W/m2
11:38 36.0 °F /  2.2 °C 31.6 °F /  -0.2 °C 29.92in /  1013.1hPa Calm     84% 0.00in /  0mm 74 W/m2
11:44 36.2 °F /  2.3 °C 31.8 °F /  -0.1 °C 29.90in /  1012.4hPa Calm   1.0mph /  1.6km/h 84% 0.00in /  0mm 86 W/m2
11:50 36.1 °F /  2.3 °C 31.7 °F /  -0.2 °C 29.90in /  1012.4hPa Calm     84% 0.00in /  0mm 97 W/m2
11:56 36.2 °F /  2.3 °C 31.8 °F /  -0.1 °C 29.90in /  1012.4hPa WNW 1.0mph /  1.6km/h 1.0mph /  1.6km/h 84% 0.00in /  0mm 102 W/m2
12:02 36.3 °F /  2.4 °C 31.9 °F /  -0.1 °C 29.90in /  1012.4hPa Calm   2.0mph /  3.2km/h 84% 0.00in /  0mm 102 W/m2
12:08 36.4 °F /  2.4 °C 32.0 °F /  0 °C 29.90in /  1012.4hPa Calm   2.0mph /  3.2km/h 84% 0.00in /  0mm 100 W/m2
12:14 36.5 °F /  2.5 °C 32.1 °F /  0.1 °C 29.90in /  1012.4hPa NE 1.0mph /  1.6km/h 3.0mph /  4.8km/h 84% 0.00in /  0mm 113 W/m2
12:20 36.7 °F /  2.6 °C 32.3 °F /  0.2 °C 29.89in /  1012.1hPa NE 2.0mph /  3.2km/h 2.0mph /  3.2km/h 84% 0.00in /  0mm 132 W/m2
12:26 36.8 °F /  2.7 °C 32.4 °F /  0.2 °C 29.89in /  1012.1hPa NE 2.0mph /  3.2km/h 3.0mph /  4.8km/h 84% 0.00in /  0mm 162 W/m2
12:32 37.2 °F /  2.9 °C 32.8 °F /  0.4 °C 29.89in /  1012.1hPa ENE 2.0mph /  3.2km/h 3.0mph /  4.8km/h 84% 0.00in /  0mm 151 W/m2
12:38 37.2 °F /  2.9 °C 32.5 °F /  0.3 °C 29.89in /  1012.1hPa ENE 2.0mph /  3.2km/h 3.0mph /  4.8km/h 83% 0.00in /  0mm 113 W/m2
12:44 37.3 °F /  2.9 °C 32.6 °F /  0.3 °C 29.89in /  1012.1hPa ENE 2.0mph /  3.2km/h 2.0mph /  3.2km/h 83% 0.00in /  0mm 100 W/m2
12:50 37.3 °F /  2.9 °C 32.6 °F /  0.3 °C 29.89in /  1012.1hPa NE 2.0mph /  3.2km/h 2.0mph /  3.2km/h 83% 0.00in /  0mm 105 W/m2
12:56 37.3 °F /  2.9 °C 32.6 °F /  0.3 °C 29.89in /  1012.1hPa NE 2.0mph /  3.2km/h 8.0mph /  12.9km/h 83% 0.00in /  0mm 98 W/m2
13:02 37.2 °F /  2.9 °C 32.5 °F /  0.3 °C 29.89in /  1012.1hPa ENE 2.0mph /  3.2km/h 3.0mph /  4.8km/h 83% 0.00in /  0mm 123 W/m2
13:08 37.3 °F /  2.9 °C 32.6 °F /  0.3 °C 29.89in /  1012.1hPa NE 2.0mph /  3.2km/h 3.0mph /  4.8km/h 83% 0.00in /  0mm 127 W/m2
13:14 37.3 °F /  2.9 °C 32.6 °F /  0.3 °C 29.89in /  1012.1hPa ESE 2.0mph /  3.2km/h 3.0mph /  4.8km/h 83% 0.00in /  0mm 105 W/m2
13:20 37.3 °F /  2.9 °C 32.6 °F /  0.3 °C 29.88in /  1011.7hPa ESE 2.0mph /  3.2km/h 2.0mph /  3.2km/h 83% 0.00in /  0mm 186 W/m2
13:26 37.5 °F /  3.1 °C 32.8 °F /  0.4 °C 29.88in /  1011.7hPa SE 2.0mph /  3.2km/h 4.0mph /  6.4km/h 83% 0.00in /  0mm 272 W/m2
13:32 37.8 °F /  3.2 °C 33.1 °F /  0.6 °C 29.87in /  1011.4hPa SE 2.0mph /  3.2km/h 3.0mph /  4.8km/h 83% 0.00in /  0mm 260 W/m2
13:38 38.0 °F /  3.3 °C 33.0 °F /  0.6 °C 29.86in /  1011.1hPa SE 2.0mph /  3.2km/h 6.0mph /  9.7km/h 82% 0.00in /  0mm 274 W/m2
13:44 38.2 °F /  3.4 °C 33.2 °F /  0.7 °C 29.86in /  1011.1hPa SE 2.0mph /  3.2km/h 4.0mph /  6.4km/h 82% 0.00in /  0mm 279 W/m2
13:50 38.6 °F /  3.7 °C 33.6 °F /  0.9 °C 29.85in /  1010.7hPa NNE 2.0mph /  3.2km/h 2.0mph /  3.2km/h 82% 0.00in /  0mm 274 W/m2
13:56 38.8 °F /  3.8 °C 33.2 °F /  0.7 °C 29.84in /  1010.4hPa NE 1.0mph /  1.6km/h 2.0mph /  3.2km/h 80% 0.00in /  0mm 278 W/m2
14:02 38.8 °F /  3.8 °C 33.2 °F /  0.7 °C 29.84in /  1010.4hPa East 2.0mph /  3.2km/h 2.0mph /  3.2km/h 80% 0.00in /  0mm 301 W/m2
14:08 38.7 °F /  3.7 °C 32.7 °F /  0.4 °C 29.84in /  1010.4hPa ENE 2.0mph /  3.2km/h 3.0mph /  4.8km/h 79% 0.00in /  0mm 225 W/m2
14:14 38.8 °F /  3.8 °C 32.8 °F /  0.4 °C 29.84in /  1010.4hPa NNE 2.0mph /  3.2km/h 5.0mph /  8km/h 79% 0.00in /  0mm 209 W/m2
14:20 39.1 °F /  3.9 °C 33.1 °F /  0.6 °C 29.83in /  1010hPa SE 3.0mph /  4.8km/h 3.0mph /  4.8km/h 79% 0.00in /  0mm 207 W/m2
14:26 39.0 °F /  3.9 °C 32.7 °F /  0.4 °C 29.83in /  1010hPa ENE 2.0mph /  3.2km/h 3.0mph /  4.8km/h 78% 0.00in /  0mm 192 W/m2
14:32 39.1 °F /  3.9 °C 32.8 °F /  0.4 °C 29.83in /  1010hPa SSE 2.0mph /  3.2km/h 2.0mph /  3.2km/h 78% 0.00in /  0mm 174 W/m2
14:38 39.0 °F /  3.9 °C 32.7 °F /  0.4 °C 29.83in /  1010hPa South 3.0mph /  4.8km/h 4.0mph /  6.4km/h 78% 0.00in /  0mm 174 W/m2
14:44 39.0 °F /  3.9 °C 32.4 °F /  0.2 °C 29.83in /  1010hPa ESE 3.0mph /  4.8km/h 3.0mph /  4.8km/h 77% 0.00in /  0mm 207 W/m2
14:50 39.1 °F /  3.9 °C 32.5 °F /  0.3 °C 29.82in /  1009.7hPa SE 2.0mph /  3.2km/h 2.0mph /  3.2km/h 77% 0.00in /  0mm 172 W/m2
14:56 39.2 °F /  4 °C 32.6 °F /  0.3 °C 29.81in /  1009.4hPa SE 1.0mph /  1.6km/h 2.0mph /  3.2km/h 77% 0.00in /  0mm 148 W/m2
15:02 39.2 °F /  4 °C 32.3 °F /  0.2 °C 29.81in /  1009.4hPa Calm     76% 0.00in /  0mm 128 W/m2
15:08 39.2 °F /  4 °C 32.3 °F /  0.2 °C 29.80in /  1009hPa Calm   3.0mph /  4.8km/h 76% 0.00in /  0mm 118 W/m2
15:14 39.3 °F /  4.1 °C 32.4 °F /  0.2 °C 29.80in /  1009hPa ESE 1.0mph /  1.6km/h 2.0mph /  3.2km/h 76% 0.00in /  0mm 116 W/m2
15:20 39.2 °F /  4 °C 32.3 °F /  0.2 °C 29.80in /  1009hPa ESE 1.0mph /  1.6km/h 2.0mph /  3.2km/h 76% 0.00in /  0mm 100 W/m2
15:26 39.3 °F /  4.1 °C 32.4 °F /  0.2 °C 29.79in /  1008.7hPa ESE 1.0mph /  1.6km/h 3.0mph /  4.8km/h 76% 0.00in /  0mm 83 W/m2
15:32 39.2 °F /  4 °C 32.3 °F /  0.2 °C 29.79in /  1008.7hPa ESE 1.0mph /  1.6km/h 1.0mph /  1.6km/h 76% 0.00in /  0mm 70 W/m2
15:38 39.3 °F /  4.1 °C 32.4 °F /  0.2 °C 29.78in /  1008.4hPa Calm   2.0mph /  3.2km/h 76% 0.00in /  0mm 72 W/m2
15:44 39.4 °F /  4.1 °C 32.5 °F /  0.3 °C 29.78in /  1008.4hPa ESE 1.0mph /  1.6km/h 1.0mph /  1.6km/h 76% 0.00in /  0mm 63 W/m2
15:50 39.4 °F /  4.1 °C 32.5 °F /  0.3 °C 29.78in /  1008.4hPa Calm   1.0mph /  1.6km/h 76% 0.00in /  0mm 56 W/m2
15:56 39.2 °F /  4 °C 32.3 °F /  0.2 °C 29.78in /  1008.4hPa ESE 1.0mph /  1.6km/h 2.0mph /  3.2km/h 76% 0.00in /  0mm 54 W/m2
16:02 39.1 °F /  3.9 °C 32.2 °F /  0.1 °C 29.78in /  1008.4hPa ESE 2.0mph /  3.2km/h 2.0mph /  3.2km/h 76% 0.00in /  0mm 51 W/m2
16:08 39.1 °F /  3.9 °C 32.5 °F /  0.3 °C 29.77in /  1008hPa SE 1.0mph /  1.6km/h 3.0mph /  4.8km/h 77% 0.00in /  0mm 51 W/m2
16:14 38.9 °F /  3.8 °C 32.0 °F /  0 °C 29.77in /  1008hPa SE 2.0mph /  3.2km/h 3.0mph /  4.8km/h 76% 0.00in /  0mm 47 W/m2
16:20 38.9 °F /  3.8 °C 32.3 °F /  0.2 °C 29.77in /  1008hPa SE 2.0mph /  3.2km/h 2.0mph /  3.2km/h 77% 0.00in /  0mm 42 W/m2
16:26 38.9 °F /  3.8 °C 32.3 °F /  0.2 °C 29.76in /  1007.7hPa SE 1.0mph /  1.6km/h 2.0mph /  3.2km/h 77% 0.00in /  0mm 37 W/m2
16:32 38.8 °F /  3.8 °C 32.2 °F /  0.1 °C 29.76in /  1007.7hPa SE 1.0mph /  1.6km/h 2.0mph /  3.2km/h 77% 0.00in /  0mm 33 W/m2
16:38 38.8 °F /  3.8 °C 32.2 °F /  0.1 °C 29.75in /  1007.3hPa Calm   2.0mph /  3.2km/h 77% 0.00in /  0mm 30 W/m2
16:44 38.9 °F /  3.8 °C 32.3 °F /  0.2 °C 29.75in /  1007.3hPa Calm     77% 0.00in /  0mm 26 W/m2
16:50 38.8 °F /  3.8 °C 32.2 °F /  0.1 °C 29.75in /  1007.3hPa Calm     77% 0.00in /  0mm 23 W/m2
16:56 38.8 °F /  3.8 °C 32.2 °F /  0.1 °C 29.75in /  1007.3hPa Calm     77% 0.00in /  0mm 21 W/m2
17:02 38.8 °F /  3.8 °C 32.2 °F /  0.1 °C 29.75in /  1007.3hPa Calm     77% 0.00in /  0mm 18 W/m2
17:08 38.8 °F /  3.8 °C 32.2 °F /  0.1 °C 29.75in /  1007.3hPa Calm     77% 0.00in /  0mm 16 W/m2
17:14 38.7 °F /  3.7 °C 32.1 °F /  0.1 °C 29.75in /  1007.3hPa Calm     77% 0.00in /  0mm 12 W/m2
17:20 38.7 °F /  3.7 °C 32.1 °F /  0.1 °C 29.74in /  1007hPa Calm     77% 0.00in /  0mm 11 W/m2
17:26 38.6 °F /  3.7 °C 32.0 °F /  0 °C 29.74in /  1007hPa Calm     77% 0.00in /  0mm 9 W/m2
17:32 38.6 °F /  3.7 °C 32.0 °F /  0 °C 29.74in /  1007hPa Calm     77% 0.00in /  0mm 7 W/m2
17:38 38.6 °F /  3.7 °C 32.3 °F /  0.2 °C 29.74in /  1007hPa Calm     78% 0.00in /  0mm 5 W/m2
17:44 38.5 °F /  3.6 °C 32.2 °F /  0.1 °C 29.74in /  1007hPa Calm     78% 0.00in /  0mm 0 W/m2
17:50 38.4 °F /  3.6 °C 32.1 °F /  0.1 °C 29.74in /  1007hPa Calm     78% 0.00in /  0mm 0 W/m2
17:54 38.3 °F /  3.5 °C 32.0 °F /  0 °C 29.74in /  1007hPa Calm     78% 0.00in /  0mm 0 W/m2
18:00 38.2 °F /  3.4 °C 31.9 °F /  -0.1 °C 29.74in /  1007hPa Calm     78% 0.00in /  0mm 0 W/m2
18:06 38.2 °F /  3.4 °C 32.3 °F /  0.2 °C 29.74in /  1007hPa Calm     79% 0.00in /  0mm 0 W/m2
18:12 38.0 °F /  3.3 °C 32.1 °F /  0.1 °C 29.74in /  1007hPa Calm     79% 0.00in /  0mm 0 W/m2
18:18 37.9 °F /  3.3 °C 32.3 °F /  0.2 °C 29.74in /  1007hPa Calm     80% 0.00in /  0mm 0 W/m2
18:24 37.8 °F /  3.2 °C 32.2 °F /  0.1 °C 29.74in /  1007hPa Calm   2.0mph /  3.2km/h 80% 0.00in /  0mm 0 W/m2
18:30 37.7 °F /  3.2 °C 32.1 °F /  0.1 °C 29.74in /  1007hPa NE 1.0mph /  1.6km/h 2.0mph /  3.2km/h 80% 0.00in /  0mm 0 W/m2
18:36 37.6 °F /  3.1 °C 32.0 °F /  0 °C 29.74in /  1007hPa NE 1.0mph /  1.6km/h 2.0mph /  3.2km/h 80% 0.00in /  0mm 0 W/m2
18:42 37.4 °F /  3 °C 31.8 °F /  -0.1 °C 29.73in /  1006.7hPa NE 1.0mph /  1.6km/h 1.0mph /  1.6km/h 80% 0.00in /  0mm 0 W/m2
18:48 37.3 °F /  2.9 °C 31.7 °F /  -0.2 °C 29.72in /  1006.3hPa NE 1.0mph /  1.6km/h 1.0mph /  1.6km/h 80% 0.00in /  0mm 0 W/m2
18:54 37.1 °F /  2.8 °C 31.5 °F /  -0.3 °C 29.72in /  1006.3hPa NE 1.0mph /  1.6km/h 1.0mph /  1.6km/h 80% 0.00in /  0mm 0 W/m2
19:00 36.9 °F /  2.7 °C 31.3 °F /  -0.4 °C 29.72in /  1006.3hPa Calm     80% 0.00in /  0mm 0 W/m2
19:06 36.9 °F /  2.7 °C 31.3 °F /  -0.4 °C 29.71in /  1006hPa Calm   1.0mph /  1.6km/h 80% 0.00in /  0mm 0 W/m2
19:12 36.8 °F /  2.7 °C 31.2 °F /  -0.4 °C 29.71in /  1006hPa NE 1.0mph /  1.6km/h 2.0mph /  3.2km/h 80% 0.00in /  0mm 0 W/m2
19:18 36.8 °F /  2.7 °C 31.5 °F /  -0.3 °C 29.71in /  1006hPa NE 1.0mph /  1.6km/h 2.0mph /  3.2km/h 81% 0.00in /  0mm 0 W/m2
19:24 36.8 °F /  2.7 °C 31.5 °F /  -0.3 °C 29.70in /  1005.6hPa Calm   1.0mph /  1.6km/h 81% 0.00in /  0mm 0 W/m2
19:30 36.7 °F /  2.6 °C 31.4 °F /  -0.3 °C 29.70in /  1005.6hPa Calm     81% 0.00in /  0mm 0 W/m2
19:36 36.7 °F /  2.6 °C 31.4 °F /  -0.3 °C 29.69in /  1005.3hPa Calm     81% 0.00in /  0mm 0 W/m2
19:42 36.7 °F /  2.6 °C 31.4 °F /  -0.3 °C 29.69in /  1005.3hPa Calm     81% 0.00in /  0mm 0 W/m2
19:48 36.7 °F /  2.6 °C 31.4 °F /  -0.3 °C 29.69in /  1005.3hPa Calm     81% 0.00in /  0mm 0 W/m2
19:54 36.7 °F /  2.6 °C 31.4 °F /  -0.3 °C 29.69in /  1005.3hPa Calm     81% 0.00in /  0mm 0 W/m2
20:00 36.7 °F /  2.6 °C 31.4 °F /  -0.3 °C 29.68in /  1005hPa Calm     81% 0.00in /  0mm 0 W/m2
20:06 36.7 °F /  2.6 °C 31.4 °F /  -0.3 °C 29.68in /  1005hPa Calm     81% 0.00in /  0mm 0 W/m2
20:12 36.7 °F /  2.6 °C 31.4 °F /  -0.3 °C 29.67in /  1004.6hPa Calm   1.0mph /  1.6km/h 81% 0.00in /  0mm 0 W/m2
20:18 36.7 °F /  2.6 °C 31.4 °F /  -0.3 °C 29.67in /  1004.6hPa NE 1.0mph /  1.6km/h 1.0mph /  1.6km/h 81% 0.00in /  0mm 0 W/m2
20:24 36.7 °F /  2.6 °C 31.4 °F /  -0.3 °C 29.67in /  1004.6hPa Calm     81% 0.00in /  0mm 0 W/m2
20:30 36.8 °F /  2.7 °C 31.5 °F /  -0.3 °C 29.66in /  1004.3hPa Calm     81% 0.00in /  0mm 0 W/m2
20:36 36.8 °F /  2.7 °C 31.5 °F /  -0.3 °C 29.66in /  1004.3hPa Calm   2.0mph /  3.2km/h 81% 0.00in /  0mm 0 W/m2
20:42 36.8 °F /  2.7 °C 31.5 °F /  -0.3 °C 29.66in /  1004.3hPa Calm   2.0mph /  3.2km/h 81% 0.00in /  0mm 0 W/m2
20:48 36.9 °F /  2.7 °C 31.6 °F /  -0.2 °C 29.66in /  1004.3hPa Calm   2.0mph /  3.2km/h 81% 0.00in /  0mm 0 W/m2
20:54 37.0 °F /  2.8 °C 31.4 °F /  -0.3 °C 29.66in /  1004.3hPa Calm     80% 0.00in /  0mm 0 W/m2
21:00 37.1 °F /  2.8 °C 31.5 °F /  -0.3 °C 29.65in /  1003.9hPa Calm     80% 0.00in /  0mm 0 W/m2
21:06 37.1 °F /  2.8 °C 31.8 °F /  -0.1 °C 29.64in /  1003.6hPa Calm   1.0mph /  1.6km/h 81% 0.00in /  0mm 0 W/m2
21:12 37.2 °F /  2.9 °C 31.6 °F /  -0.2 °C 29.64in /  1003.6hPa NE 1.0mph /  1.6km/h 2.0mph /  3.2km/h 80% 0.00in /  0mm 0 W/m2
21:18 37.3 °F /  2.9 °C 31.7 °F /  -0.2 °C 29.63in /  1003.3hPa NE 1.0mph /  1.6km/h 2.0mph /  3.2km/h 80% 0.00in /  0mm 0 W/m2
21:24 37.3 °F /  2.9 °C 31.7 °F /  -0.2 °C 29.63in /  1003.3hPa NE 1.0mph /  1.6km/h 1.0mph /  1.6km/h 80% 0.00in /  0mm 0 W/m2
21:30 37.4 °F /  3 °C 31.5 °F /  -0.3 °C 29.63in /  1003.3hPa NE 1.0mph /  1.6km/h 2.0mph /  3.2km/h 79% 0.00in /  0mm 0 W/m2
21:36 37.5 °F /  3.1 °C 31.3 °F /  -0.4 °C 29.63in /  1003.3hPa NE 1.0mph /  1.6km/h 2.0mph /  3.2km/h 78% 0.00in /  0mm 0 W/m2
21:42 37.7 °F /  3.2 °C 31.1 °F /  -0.5 °C 29.62in /  1002.9hPa NE 1.0mph /  1.6km/h 3.0mph /  4.8km/h 77% 0.00in /  0mm 0 W/m2
21:48 37.8 °F /  3.2 °C 31.2 °F /  -0.4 °C 29.62in /  1002.9hPa NE 1.0mph /  1.6km/h 3.0mph /  4.8km/h 77% 0.00in /  0mm 0 W/m2
21:54 37.8 °F /  3.2 °C 31.2 °F /  -0.4 °C 29.62in /  1002.9hPa NE 1.0mph /  1.6km/h 2.0mph /  3.2km/h 77% 0.00in /  0mm 0 W/m2
22:00 37.9 °F /  3.3 °C 31.0 °F /  -0.6 °C 29.62in /  1002.9hPa NE 1.0mph /  1.6km/h 1.0mph /  1.6km/h 76% 0.00in /  0mm 0 W/m2
22:06 37.9 °F /  3.3 °C 31.0 °F /  -0.6 °C 29.62in /  1002.9hPa NE 1.0mph /  1.6km/h 1.0mph /  1.6km/h 76% 0.00in /  0mm 0 W/m2
22:12 37.9 °F /  3.3 °C 31.0 °F /  -0.6 °C 29.61in /  1002.6hPa Calm     76% 0.00in /  0mm 0 W/m2
22:18 37.9 °F /  3.3 °C 31.0 °F /  -0.6 °C 29.61in /  1002.6hPa Calm     76% 0.00in /  0mm 0 W/m2
22:24 38.0 °F /  3.3 °C 30.8 °F /  -0.7 °C 29.61in /  1002.6hPa Calm     75% 0.00in /  0mm 0 W/m2
22:30 38.0 °F /  3.3 °C 31.1 °F /  -0.5 °C 29.61in /  1002.6hPa Calm   1.0mph /  1.6km/h 76% 0.00in /  0mm 0 W/m2
22:36 37.9 °F /  3.3 °C 31.0 °F /  -0.6 °C 29.61in /  1002.6hPa Calm   2.0mph /  3.2km/h 76% 0.00in /  0mm 0 W/m2
22:42 37.9 °F /  3.3 °C 31.0 °F /  -0.6 °C 29.61in /  1002.6hPa Calm     76% 0.00in /  0mm 0 W/m2
22:48 37.9 °F /  3.3 °C 31.3 °F /  -0.4 °C 29.61in /  1002.6hPa Calm     77% 0.00in /  0mm 0 W/m2
22:54 37.8 °F /  3.2 °C 31.6 °F /  -0.2 °C 29.61in /  1002.6hPa ENE 1.0mph /  1.6km/h 7.0mph /  11.3km/h 78% 0.00in /  0mm 0 W/m2
23:00 38.2 °F /  3.4 °C 31.9 °F /  -0.1 °C 29.61in /  1002.6hPa NE 3.0mph /  4.8km/h 5.0mph /  8km/h 78% 0.00in /  0mm 0 W/m2
23:06 38.4 °F /  3.6 °C 32.5 °F /  0.3 °C 29.61in /  1002.6hPa NE 6.0mph /  9.7km/h 8.0mph /  12.9km/h 79% 0.00in /  0mm 0 W/m2
23:12 38.1 °F /  3.4 °C 32.5 °F /  0.3 °C 29.61in /  1002.6hPa East 5.0mph /  8km/h 5.0mph /  8km/h 80% 0.11in /  2.79mm 0 W/m2
23:18 37.2 °F /  2.9 °C 32.2 °F /  0.1 °C 29.61in /  1002.6hPa ENE 6.0mph /  9.7km/h 13.0mph /  20.9km/h 82% 0.17in /  4.32mm 0 W/m2
23:24 36.8 °F /  2.7 °C 32.4 °F /  0.2 °C 29.61in /  1002.6hPa NNE 7.0mph /  11.3km/h 14.0mph /  22.5km/h 84% 0.13in /  3.3mm 0 W/m2
23:30 36.2 °F /  2.3 °C 32.1 °F /  0.1 °C 29.61in /  1002.6hPa East 6.0mph /  9.7km/h 7.0mph /  11.3km/h 85% 0.11in /  2.79mm 0 W/m2
23:36 35.8 °F /  2.1 °C 32.0 °F /  0 °C 29.61in /  1002.6hPa NE 5.0mph /  8km/h 7.0mph /  11.3km/h 86% 0.13in /  3.3mm 0 W/m2
23:42 35.6 °F /  2 °C 32.1 °F /  0.1 °C 29.60in /  1002.3hPa ENE 4.0mph /  6.4km/h 5.0mph /  8km/h 87% 0.08in /  2.03mm 0 W/m2
23:48 35.5 °F /  1.9 °C 32.0 °F /  0 °C 29.61in /  1002.6hPa SE 3.0mph /  4.8km/h 5.0mph /  8km/h 87% 0.08in /  2.03mm 0 W/m2
23:54 35.4 °F /  1.9 °C 31.9 °F /  -0.1 °C 29.61in /  1002.6hPa NNE 4.0mph /  6.4km/h 4.0mph /  6.4km/h 87% 0.09in /  2.29mm 0 W/m2
Country Meadow, Clay, NY, USA
Compliments of Weather Underground - 2 mb